Myrtle Point, Oregon
Current Conditions -  °F | °C
As of 8:55 AM on Friday 28 Nov 2014 (Local Time) from KOTH Reporting Station
Overcast Overcast  
Wind Chill: 55°   Ceiling: 2600
Heat Index: 55°   Visibility: 9mi
Dew Point: 55°   Wind: 7mph
Humidity: 100%   Direction: 160°SSE
Pressure: 29.7"   Gusts: NA
Location:  43.06°N, 124.14°W
Report Text: KOTH 281655Z 16006KT 9SM OVC026 13/13 A2970 RMK AO1 P0007
Loading
Personal Weather Stations






























Interactive Weather Map New forecast layout! Learn more

10-Day Weather Forecast

Advertisements
Track Severe Weather on mobile